首页
METAR-TAF:

METAR-TAF

机场 :

Mount Airy/Surry County Airport

芒特艾里, 北卡罗来纳州, 美国

纬度: 36-27-35N, 经度: 080-33-11W, 海拔: 380米

当前天气观测

该预报发布于11分钟前的19:45 UTC
风速5节,风向南转西南
温度 14°C
湿度 51%
气压 1009 hPa
能見度: 16.1公里
散云层高于6000英尺

METAR: KMWK 151945Z AUTO 21005KT 10SM SCT060 14/04 A2980 RMK AO2 T01430040

时间: 14:56 (19:56 UTC)


TAF: 丢失

超过4000个机场的气象观测和天气预报(METAR&TAF报告)。

可查询的气象台以黄色和红色小点在地图上表示。

将鼠标移到小点上方,可查看气象台名称。

然后点击查看天气观测和预报。

如需切换地图:点击带黑十字的绿色按钮放大地图;点击带横线的绿色按钮缩小地图;或者点击绿色箭头查看邻近地区的地图。


METAR-TAF: